Aeroporto :
LOGIN :

Iscrizione | Disclaimer

   EN    FR    IT 

 










Sommario :    VFR   VFR Marginale   IFR   IFR Intensivo   IFR Molto Intensivo
Visibilità : 
Base nubi : 
>= 8 km
>= 3000ft
5 / 8 km
1000 / 3000 ft
1500m / 5 km
500 / 1000 ft
800 / 1500m
200 / 500 ft
< 800m
< 200 ft
Simboli :   Temporali  Nebbia  Neve Forte  Precipitazioni Forti  Vento > 20 kt
SIGMETs :   Varie  Temporali  Ghiacco  Turbolenza  Onda orograficha  Ceneri Vulcaniche






- Altitudine del aeroporto : 1249 ft


ETSN - Neuburg AB

ULTIMO METAR :
  • 201920Z 20003KT 9999 BKN040 04/01 Q1017 BLU BLU BECMG BLU+

METARs OBSOLETI :
  • 201820Z 13001KT 9999 BKN040 05/03 Q1018 BLU BLU
  • 201720Z 11003KT 9999 BKN040 BKN280 07/03 Q1018 BLU BLU

TAF TAF ETSN
Valido dal 20 a 18 ore il 21 a 03 ore UTC


201715Z 2018/2103 15005KT 9999 NSW BKN040
BECMG 2022/2024 23010G20KT 8000 NSW SCT015 BKN030
TEMPO 2100/2103 26015G30KT 4000 RADZ BKN012 OVC025 BY ETGL



MetMap, La meteo Aeronautica in un colpo d'occhio ! - Copyright ORBIFLY Dicembre 2007 - Disclaimer

ORBIFLY MET'MAP TEAM :

Programmazione e sviluppo : Alexandra Zaïnal
Concezione : Baudouin d'Aumeries
Aiuto per la programmazione : Marc-Olivier Méhu
Supporto tecnico e logistico : Manuel Goepfert
Aiuto per la traduzione : Arnaldo La Scala

Contatto : metmap@orbifly.com




FONTI E CREDITI :

   NOAA